Terminal Aerodrome Forecast
Issued by NWS

Home | Current Version | Previous Version | Text Only | Print | Product List | Glossary On
Versions: 1 2 3 4 5 6 7 8 9 10 11 12 13 14 15 16 17 18 19 20 21 22 23
000
FTUS43 KLSX 212131 AAC
TAFCPS
TAF AMD
KCPS 212131Z 2122/2218 18007KT P6SM BKN250
     FM220400 VRB03KT P6SM VCSH BKN070
     FM220700 00000KT 4SM BR VCSH OVC060
     FM220900 VRB03KT 3SM BR VCSH OVC015
     FM221100 03005KT 2SM -SHRA BR OVC008=

USA.gov is the U.S. government's official web portal to all federal, state and local government web resources and services.